METAR Data
IDs: Format: Raw Decoded Include TAF

Data at: 1231 UTC 16 Jul 2019

NZCH 161200Z AUTO 25003KT 9000 MIFG OVC002/// 05/05 Q0985 TEMPO 0500 FG TEMPO SCT004
NZCH 161130Z AUTO 25002KT 0500 R02/P2000N R20/P2000N FG BKN004/// 03/03 Q0985
NZCH 161100Z AUTO 28001KT 9999 MIFG SCT004/// 04/04 Q0985 TEMPO 0500 FG BKN004
NZCH 161030Z AUTO 28003KT 9999 FEW005/// 05/05 Q0985 TEMPO BKN006 BECMG 04010KT
NZCH 161000Z AUTO 26004KT 9999 NCD 05/05 Q0985 TEMPO BKN008 BECMG 04010KT

TAF NZCH 161101Z 1612/1712 VRB02KT 9999 FEW004
  TEMPO 1612/1615 0500 FG BKN004
  FM161500 24010KT 9999 -SHRA BKN006 BKN035
  BECMG 1623/1701 22015G25KT FEW010 BKN030
  BECMG 1705/1707 22005KT